Time;durP1;ratioP1;P1;durP2;ratioP2;P2;SDS_P1;SDS_P2;PMS_P1;PMS_P2;Temp;Humidity;BMP_temperature;BMP_pressure;BME280_temperature;BME280_humidity;BME280_pressure;Samples;Min_cycle;Max_cycle;Signal;HPM_P1;HPM_P2
2023/10/13 00:01:42;;;;;;;5.10;3.50;;;;;;;16.93;100.00;101254.88;4973035;28;96857;-28
2023/10/13 00:04:08;;;;;;;4.88;3.13;;;;;;;16.93;100.00;101260.34;4974196;28;97997;-28
2023/10/13 00:06:33;;;;;;;8.85;3.53;;;;;;;16.91;100.00;101260.44;4974562;28;97991;-28
2023/10/13 00:08:59;;;;;;;4.93;2.80;;;;;;;16.89;100.00;101254.22;4974297;28;96564;-28
2023/10/13 00:11:26;;;;;;;4.03;2.50;;;;;;;16.90;100.00;101250.50;4974358;28;96878;-28
2023/10/13 00:13:53;;;;;;;4.90;3.05;;;;;;;16.89;100.00;101243.28;4972102;28;101347;-28
2023/10/13 00:16:21;;;;;;;5.75;3.03;;;;;;;16.88;100.00;101244.28;4972543;28;100783;-28
2023/10/13 00:18:48;;;;;;;4.13;2.47;;;;;;;16.91;100.00;101248.63;4974213;28;96572;-29
2023/10/13 00:21:14;;;;;;;6.18;2.80;;;;;;;16.90;100.00;101238.66;4975455;28;96877;-29
2023/10/13 00:23:52;;;;;;;3.97;2.65;;;;;;;16.87;100.00;101230.72;4975713;28;100869;-28
2023/10/13 00:26:27;;;;;;;5.82;2.47;;;;;;;16.86;100.00;101229.88;4977354;28;97886;-28
2023/10/13 00:29:05;;;;;;;3.65;2.40;;;;;;;16.90;100.00;101235.94;4977637;28;96688;-28
2023/10/13 00:31:42;;;;;;;4.07;2.42;;;;;;;16.86;100.00;101221.66;4976382;28;96802;-28
2023/10/13 00:37:18;;;;;;;4.00;2.20;;;;;;;16.86;100.00;101218.91;4973872;28;98724;-29
2023/10/13 00:39:46;;;;;;;5.25;2.10;;;;;;;16.87;100.00;101217.91;4974705;28;96812;-28
2023/10/13 00:42:23;;;;;;;4.00;2.03;;;;;;;16.93;100.00;101222.88;4975836;28;96858;-28
2023/10/13 00:44:49;;;;;;;7.82;2.40;;;;;;;16.91;100.00;101211.19;4976201;28;99588;-28
2023/10/13 00:50:01;;;;;;;4.20;1.88;;;;;;;16.86;100.00;101205.22;4976016;28;96570;-28
2023/10/13 00:52:29;;;;;;;3.47;1.90;;;;;;;16.90;100.00;101200.38;4977171;28;96832;-28
2023/10/13 00:54:55;;;;;;;3.08;2.22;;;;;;;16.88;100.00;101199.66;4975168;28;101059;-28
2023/10/13 00:57:26;;;;;;;3.55;1.92;;;;;;;16.91;100.00;101197.50;4976958;28;97207;-28
2023/10/13 00:59:53;;;;;;;;;;;;;;;16.89;100.00;101201.38;4976117;28;96725;-28
2023/10/13 01:05:11;;;;;;;5.65;1.58;;;;;;;16.89;100.00;101191.28;4976149;28;97123;-28
2023/10/13 01:07:39;;;;;;;2.50;1.52;;;;;;;16.90;100.00;101182.09;4974888;28;100746;-28
2023/10/13 01:10:13;;;;;;;6.10;1.88;;;;;;;16.86;100.00;101166.94;4976676;28;96726;-28
2023/10/13 01:12:38;;;;;;;4.18;2.00;;;;;;;16.88;100.00;101175.03;4976818;28;96715;-28
2023/10/13 01:15:08;;;;;;;3.58;1.98;;;;;;;16.84;100.00;101160.72;4976424;28;97354;-28
2023/10/13 01:17:33;;;;;;;2.88;1.73;;;;;;;16.87;100.00;101162.31;4974691;28;100994;-29
2023/10/13 01:19:59;;;;;;;7.22;1.65;;;;;;;16.86;100.00;101169.66;4976360;28;96617;-28
2023/10/13 01:22:27;;;;;;;2.42;1.48;;;;;;;16.86;100.00;101164.19;4976959;28;96820;-28
2023/10/13 01:25:04;;;;;;;3.70;1.55;;;;;;;16.81;100.00;101160.97;4974679;28;101106;-29
2023/10/13 01:27:29;;;;;;;4.10;1.83;;;;;;;16.81;100.00;101150.03;4976096;28;99565;-28
2023/10/13 01:30:05;;;;;;;3.60;1.42;;;;;;;16.86;100.00;101158.72;4975846;28;96607;-28
2023/10/13 01:32:31;;;;;;;3.42;1.60;;;;;;;16.82;100.00;101143.53;4974030;28;96788;-28
2023/10/13 01:34:58;;;;;;;3.05;1.98;;;;;;;16.83;100.00;101144.41;4976039;28;97515;-29
2023/10/13 01:37:23;;;;;;;2.35;1.70;;;;;;;16.84;100.00;101144.28;4974557;28;100880;-28
2023/10/13 01:39:49;;;;;;;3.53;1.85;;;;;;;16.83;100.00;101148.03;4976280;28;96558;-29
2023/10/13 01:42:19;;;;;;;3.20;1.98;;;;;;;16.86;100.00;101139.56;4976295;28;96845;-28
2023/10/13 01:44:45;;;;;;;5.25;2.17;;;;;;;16.85;100.00;101143.31;4973985;28;101442;-29
2023/10/13 01:47:10;;;;;;;3.45;2.13;;;;;;;16.85;100.00;101143.31;4974345;28;101051;-28
2023/10/13 01:50:14;;;;;;;3.85;2.22;;;;;;;16.81;100.00;101130.88;4976244;28;96582;-28
2023/10/13 01:52:29;;;;;;;3.15;1.85;;;;;;;16.85;100.00;101131.47;4975567;28;96859;-28
2023/10/13 01:54:55;;;;;;;3.50;2.00;;;;;;;16.83;100.00;101128.88;4975266;28;97518;-28
2023/10/13 01:57:23;;;;;;;6.53;2.05;;;;;;;16.77;100.00;101118.41;4975404;28;99720;-28
2023/10/13 01:59:49;;;;;;;2.80;1.95;;;;;;;16.80;100.00;101101.75;4974391;28;96736;-29
2023/10/13 02:02:26;;;;;;;3.88;1.83;;;;;;;16.80;100.00;101096.28;4976039;28;96833;-28
2023/10/13 02:05:02;;;;;;;3.42;2.10;;;;;;;16.83;100.00;101097.91;4974306;28;101545;-28
2023/10/13 02:07:29;;;;;;;2.67;1.80;;;;;;;16.81;100.00;101088.97;4975743;28;97422;-28
2023/10/13 02:09:58;;;;;;;3.25;1.63;;;;;;;16.85;100.00;101087.69;4975605;28;96603;-28
2023/10/13 02:12:36;;;;;;;2.55;1.67;;;;;;;16.79;100.00;101077.28;4974754;28;96927;-28
2023/10/13 02:15:04;;;;;;;3.25;2.00;;;;;;;16.81;100.00;101073.44;4975650;28;98014;-28
2023/10/13 02:17:39;;;;;;;2.17;1.40;;;;;;;16.80;100.00;101066.19;4973831;28;101237;-28
2023/10/13 02:20:08;;;;;;;4.90;2.20;;;;;;;16.83;100.00;101074.16;4973958;28;96705;-29
2023/10/13 02:22:34;;;;;;;3.03;1.70;;;;;;;16.81;100.00;101061.63;4975322;28;96872;-28
2023/10/13 02:25:06;;;;;;;2.58;1.85;;;;;;;16.83;100.00;101070.53;4975400;28;97990;-28
2023/10/13 02:27:40;;;;;;;1.55;1.20;;;;;;;16.79;100.00;101058.13;4973853;28;100872;-28
2023/10/13 02:30:12;;;;;;;1.75;1.30;;;;;;;16.81;100.00;101057.00;4975865;28;96614;-28
2023/10/13 02:32:40;;;;;;;1.98;1.27;;;;;;;16.81;100.00;101047.94;4975416;28;96682;-28
2023/10/13 02:35:08;;;;;;;2.70;1.30;;;;;;;16.79;100.00;101042.59;4957639;28;101074;-28
2023/10/13 02:37:35;;;;;;;4.60;1.30;;;;;;;16.77;100.00;101039.94;4973893;28;100958;-28
2023/10/13 02:40:01;;;;;;;3.08;1.52;;;;;;;16.79;100.00;101019.84;4975272;28;96535;-29
2023/10/13 02:42:26;;;;;;;2.17;1.20;;;;;;;16.77;100.00;101007.09;4957440;28;96852;-28
2023/10/13 02:44:55;;;;;;;2.38;1.40;;;;;;;16.80;100.00;101006.00;4973030;28;101474;-28
2023/10/13 02:47:23;;;;;;;2.97;1.23;;;;;;;16.79;100.00;101001.53;4973296;28;99189;-28
2023/10/13 02:49:49;;;;;;;3.10;1.30;;;;;;;16.76;100.00;100996.31;4973910;28;96592;-29
2023/10/13 02:52:14;;;;;;;4.18;1.63;;;;;;;16.75;100.00;101005.50;4975392;28;96617;-28
2023/10/13 02:54:47;;;;;;;3.53;1.42;;;;;;;16.77;100.00;101007.09;4974856;28;97948;-29
2023/10/13 02:57:15;;;;;;;2.13;1.20;;;;;;;16.79;100.00;101020.69;4973395;28;100835;-28
2023/10/13 02:59:46;;;;;;;2.20;1.45;;;;;;;16.77;100.00;101030.88;4973815;28;96851;-27
2023/10/13 03:02:23;;;;;;;4.97;1.53;;;;;;;16.72;100.00;101020.31;4973883;28;96819;-28
2023/10/13 03:05:00;;;;;;;2.88;1.40;;;;;;;16.73;100.00;101015.69;4974974;28;97579;-28
2023/10/13 03:07:28;;;;;;;2.33;1.33;;;;;;;16.66;100.00;100992.59;4974694;28;99087;-28
2023/10/13 03:09:57;;;;;;;2.10;1.23;;;;;;;16.71;100.00;100979.44;4973109;28;96729;-28
2023/10/13 03:12:24;;;;;;;2.17;1.17;;;;;;;16.71;100.00;100965.75;4973581;28;96581;-28
2023/10/13 03:15:06;;;;;;;1.83;1.00;;;;;;;16.63;100.00;100954.56;4973208;28;100977;-29
2023/10/13 03:17:34;;;;;;;1.15;0.73;;;;;;;16.61;100.00;100946.50;4973268;28;101412;-28
2023/10/13 03:19:59;;;;;;;1.83;1.08;;;;;;;16.54;100.00;100932.50;4975172;28;96659;-29
2023/10/13 03:22:31;;;;;;;1.60;1.02;;;;;;;16.56;100.00;100935.09;4975004;28;96961;-28
2023/10/13 03:25:09;;;;;;;4.07;1.75;;;;;;;16.52;100.00;100926.28;4974240;28;99842;-28
2023/10/13 03:30:20;;;;;;;1.95;1.23;;;;;;;16.50;100.00;100922.81;4973592;28;96800;-28
2023/10/13 03:32:50;;;;;;;1.33;0.93;;;;;;;16.50;100.00;100917.34;4973426;28;96735;-28
2023/10/13 03:35:24;;;;;;;2.75;1.50;;;;;;;16.44;100.00;100892.38;4973900;28;98530;-28
2023/10/13 03:37:53;;;;;;;3.70;2.00;;;;;;;16.48;100.00;100902.94;4972969;28;101473;-28
2023/10/13 03:45:24;;;;;;;3.28;1.80;;;;;;;16.46;100.00;100887.66;4973501;28;98004;-28
2023/10/13 03:47:51;;;;;;;5.45;1.63;;;;;;;16.44;100.00;100898.72;4974462;28;97458;-28
2023/10/13 03:50:29;;;;;;;2.05;1.27;;;;;;;16.44;100.00;100874.09;4973149;28;96716;-28
2023/10/13 03:52:57;;;;;;;4.13;1.70;;;;;;;16.45;100.00;100873.13;4973671;28;96759;-28
2023/10/13 03:55:29;;;;;;;1.95;1.33;;;;;;;16.46;100.00;100855.72;4974459;28;101021;-28
2023/10/13 03:57:55;;;;;;;2.88;1.60;;;;;;;16.46;100.00;100846.66;4976205;28;100829;-28
2023/10/13 04:00:25;;;;;;;4.55;1.63;;;;;;;16.45;100.00;100850.41;4975821;28;96643;-28
2023/10/13 04:05:40;;;;;;;10.18;1.85;;;;;;;16.46;100.00;100858.44;4975624;28;97940;-28
2023/10/13 04:19:07;;;;;;;2.50;1.52;;;;;;;16.52;100.00;100857.06;4976837;28;97755;-28
2023/10/13 04:32:28;;;;;;;3.40;1.60;;;;;;;16.67;100.00;100838.44;4975481;28;96582;-28
2023/10/13 04:35:01;;;;;;;;;;;;;;;16.71;100.00;100829.84;4976450;28;96761;-28
2023/10/13 04:37:29;;;;;;;2.30;1.45;;;;;;;16.71;100.00;100824.38;4975700;28;101026;-28
2023/10/13 04:40:09;;;;;;;2.60;1.35;;;;;;;16.72;100.00;100800.63;4976973;28;97787;-28
2023/10/13 04:42:39;;;;;;;2.38;1.52;;;;;;;16.82;100.00;100815.22;4977221;28;96606;-28
2023/10/13 04:45:27;;;;;;;3.83;1.88;;;;;;;16.86;100.00;100805.75;4975724;28;96871;-28
2023/10/13 04:47:57;;;;;;;5.47;1.77;;;;;;;16.84;100.00;100810.50;4976519;28;101169;-29
2023/10/13 04:50:27;;;;;;;2.33;1.40;;;;;;;16.90;100.00;100806.34;4975249;28;100182;-29
2023/10/13 04:53:02;;;;;;;2.88;1.27;;;;;;;16.91;100.00;100817.16;4976858;28;96642;-28
2023/10/13 04:55:48;;;;;;;3.25;1.33;;;;;;;16.94;100.00;100811.41;4975659;28;96761;-28
2023/10/13 04:58:46;;;;;;;4.18;1.65;;;;;;;16.90;100.00;100793.56;4975378;28;99172;-28
2023/10/13 06:29:01;;;;;;;3.00;1.60;;;;;;;17.08;100.00;100650.56;4975595;28;97014;-28
2023/10/13 06:31:05;;;;;;;5.88;1.73;;;;;;;17.08;100.00;100650.56;4974729;28;96895;-28
2023/10/13 06:33:34;;;;;;;3.83;2.08;;;;;;;17.13;100.00;100648.28;4975768;28;96884;-29
2023/10/13 06:36:02;;;;;;;2.63;1.67;;;;;;;17.15;100.00;100641.66;4973652;28;100876;-28
2023/10/13 06:38:35;;;;;;;3.13;1.65;;;;;;;17.16;100.00;100628.81;4973706;28;100802;-28
2023/10/13 06:41:07;;;;;;;3.70;1.75;;;;;;;17.20;100.00;100619.31;4973379;28;96733;-28
2023/10/13 06:43:39;;;;;;;;;;;;;;;17.23;100.00;100626.38;4974112;28;96819;-28
2023/10/13 06:46:07;;;;;;;6.70;2.15;;;;;;;17.21;100.00;100626.56;4973243;28;101133;-29
2023/10/13 06:48:34;;;;;;;3.75;1.45;;;;;;;17.26;100.00;100623.38;4973174;28;100825;-28
2023/10/13 06:51:04;;;;;;;2.83;1.77;;;;;;;17.24;100.00;100631.72;4973871;28;96815;-29
2023/10/13 06:53:36;;;;;;;3.15;1.77;;;;;;;17.29;100.00;100606.66;4973790;28;96858;-28
2023/10/13 06:56:02;;;;;;;4.70;2.25;;;;;;;17.23;100.00;100609.97;4973439;28;99086;-29
2023/10/13 06:58:29;;;;;;;2.30;1.30;;;;;;;17.31;100.00;100593.69;4974166;28;99976;-28
2023/10/13 07:00:55;;;;;;;6.10;2.15;;;;;;;17.28;100.00;100583.00;4973762;28;96607;-28
2023/10/13 07:03:22;;;;;;;6.85;2.13;;;;;;;17.28;100.00;100572.94;4974930;28;96903;-28
2023/10/13 07:05:50;;;;;;;3.40;1.83;;;;;;;17.30;100.00;100581.84;4972882;28;101004;-28
2023/10/13 07:08:23;;;;;;;2.78;1.83;;;;;;;17.35;100.00;100590.53;4974836;28;97921;-28
2023/10/13 07:10:51;;;;;;;6.38;2.08;;;;;;;17.33;100.00;100592.53;4974899;28;96817;-28
2023/10/13 07:13:19;;;;;;;3.63;2.00;;;;;;;17.33;100.00;100581.59;4973642;28;96643;-29
2023/10/13 07:15:45;;;;;;;5.43;2.42;;;;;;;17.35;100.00;100596.00;4973248;28;101400;-28
2023/10/13 07:18:18;;;;;;;5.22;2.40;;;;;;;17.41;100.00;100597.28;4974686;28;97177;-28
2023/10/13 07:20:44;;;;;;;3.22;2.08;;;;;;;17.44;100.00;100598.88;4975376;28;96659;-28
2023/10/13 07:23:19;;;;;;;4.40;1.95;;;;;;;17.44;100.00;100605.19;4975283;28;96846;-28
2023/10/13 07:26:02;;;;;;;3.75;1.83;;;;;;;17.43;100.00;100587.06;4974670;28;97657;-29
2023/10/13 07:28:28;;;;;;;4.63;1.77;;;;;;;17.46;100.00;100584.03;4974428;28;99359;-28
2023/10/13 07:33:22;;;;;;;4.57;1.98;;;;;;;17.46;100.00;100580.44;4978519;28;96479;-28
2023/10/13 07:36:15;;;;;;;4.43;2.80;;;;;;;17.54;100.00;100573.22;4976445;28;100943;-28
2023/10/13 07:38:49;;;;;;;7.95;2.42;;;;;;;17.60;100.00;100574.50;4977908;28;99801;-28
2023/10/13 07:41:21;;;;;;;4.28;1.85;;;;;;;17.65;100.00;100576.78;4978149;28;96754;-28
2023/10/13 07:43:50;;;;;;;4.25;2.03;;;;;;;17.70;100.00;100588.16;4976640;28;96775;-28
2023/10/13 07:46:15;;;;;;;2.50;1.42;;;;;;;17.73;100.00;100594.25;4977348;28;99256;-29
2023/10/13 07:48:45;;;;;;;3.45;1.33;;;;;;;17.77;100.00;100589.31;4977871;28;99200;-28
2023/10/13 07:51:13;;;;;;;5.95;2.30;;;;;;;17.81;100.00;100582.56;4976630;28;96638;-28
2023/10/13 07:53:49;;;;;;;4.00;1.80;;;;;;;17.79;100.00;100560.75;4976407;28;96892;-28
2023/10/13 07:56:18;;;;;;;2.78;1.88;;;;;;;17.87;100.00;100559.19;4977156;28;99704;-28
2023/10/13 07:58:52;;;;;;;5.10;2.40;;;;;;;17.86;100.00;100566.53;4976029;28;100979;-28
2023/10/13 08:01:21;;;;;;;5.03;2.28;;;;;;;17.90;100.00;100562.50;4977905;28;96563;-29
2023/10/13 08:03:46;;;;;;;5.70;1.73;;;;;;;17.87;100.00;100553.69;4976608;28;97004;-28
2023/10/13 08:08:43;;;;;;;2.47;1.58;;;;;;;17.95;100.00;100542.88;4977279;28;97855;-28
2023/10/13 08:13:58;;;;;;;8.95;1.77;;;;;;;17.95;100.00;100537.38;4976941;28;96667;-29
2023/10/13 08:16:30;;;;;;;4.43;2.17;;;;;;;17.95;100.00;100537.38;4977029;28;99400;-29
2023/10/13 08:18:56;;;;;;;3.38;1.30;;;;;;;17.96;100.00;100534.47;4977013;28;99550;-28
2023/10/13 08:21:24;;;;;;;2.50;1.70;;;;;;;17.98;100.00;100531.59;4976826;28;96705;-28
2023/10/13 08:34:49;;;;;;;4.93;1.70;;;;;;;18.09;100.00;100520.44;4977804;28;96725;-28
2023/10/13 08:37:47;;;;;;;4.15;1.73;;;;;;;18.11;100.00;100503.81;4975700;28;99574;-28
2023/10/13 08:42:40;;;;;;;3.08;1.58;;;;;;;18.14;100.00;100526.34;4977160;28;96676;-28
2023/10/13 08:45:08;;;;;;;6.35;1.92;;;;;;;18.14;100.00;100523.59;4975255;28;96735;-27
2023/10/13 08:47:36;;;;;;;5.15;2.05;;;;;;;18.10;100.00;100516.69;4974717;28;101019;-28
2023/10/13 08:50:31;;;;;;;5.05;1.80;;;;;;;18.17;100.00;100509.56;4976625;28;97404;-29
2023/10/13 08:52:49;;;;;;;5.25;1.75;;;;;;;18.19;100.00;100504.81;4976792;28;96850;-28
2023/10/13 08:58:13;;;;;;;4.90;1.58;;;;;;;18.15;100.00;100495.16;4974950;28;97084;-28
2023/10/13 09:01:11;;;;;;;3.10;2.05;;;;;;;18.25;100.00;100498.69;4976595;28;98945;-29
2023/10/13 09:03:39;;;;;;;4.28;1.90;;;;;;;18.28;100.00;100507.63;4976789;28;96595;-30
2023/10/13 09:06:07;;;;;;;3.45;1.65;;;;;;;18.27;100.00;100503.19;4975825;28;96869;-29
2023/10/13 09:08:45;;;;;;;5.38;1.90;;;;;;;18.28;100.00;100497.53;4975015;28;101435;-28
2023/10/13 09:11:13;;;;;;;2.97;1.55;;;;;;;18.33;100.00;100480.59;4976325;28;99152;-28
2023/10/13 09:13:45;;;;;;;6.97;1.98;;;;;;;18.40;100.00;100478.97;4974846;28;96590;-28
2023/10/13 09:19:04;;;;;;;4.15;1.80;;;;;;;18.42;100.00;100466.88;4976751;28;97143;-28
2023/10/13 09:24:21;;;;;;;3.17;1.48;;;;;;;18.47;100.00;100466.38;4974674;28;96620;-28
2023/10/13 09:26:49;;;;;;;5.80;2.13;;;;;;;18.52;100.00;100464.06;4976703;28;96658;-28
2023/10/13 09:29:18;;;;;;;7.95;1.85;;;;;;;18.49;100.00;100464.34;4974692;28;100937;-28
2023/10/13 09:31:59;;;;;;;3.70;1.98;;;;;;;18.54;100.00;100450.16;4974858;28;100858;-28
2023/10/13 09:34:29;;;;;;;6.25;1.75;;;;;;;18.56;100.00;100453.63;4976418;28;96613;-28
2023/10/13 09:36:57;;;;;;;2.88;1.42;;;;;;;18.50;100.00;100440.53;4975016;28;96961;-28
2023/10/13 09:39:29;;;;;;;4.22;1.60;;;;;;;18.56;100.00;100435.25;4974194;28;101401;-28
2023/10/13 09:41:59;;;;;;;6.47;2.00;;;;;;;18.55;99.59;100429.97;4974412;28;100900;-29
2023/10/13 09:44:26;;;;;;;3.97;1.88;;;;;;;18.63;100.00;100443.75;4974589;28;96968;-28
2023/10/13 09:46:52;;;;;;;3.25;1.85;;;;;;;18.65;99.91;100433.47;4974327;28;97128;-28
2023/10/13 09:49:44;;;;;;;5.93;1.95;;;;;;;18.66;99.13;100422.34;4974356;28;100606;-28
2023/10/13 09:52:18;;;;;;;4.70;1.90;;;;;;;18.67;100.00;100432.28;4975662;28;97927;-28
2023/10/13 09:54:59;;;;;;;6.57;2.13;;;;;;;18.70;99.56;100424.78;4976478;28;96822;-28
2023/10/13 09:57:34;;;;;;;3.88;1.73;;;;;;;18.74;98.94;100413.31;4974938;28;96672;-28
2023/10/13 10:00:29;;;;;;;5.38;2.17;;;;;;;18.81;98.72;100427.31;4975702;28;99002;-28
2023/10/13 10:02:58;;;;;;;5.13;2.03;;;;;;;18.87;98.53;100422.03;4975629;28;98849;-28
2023/10/13 10:05:25;;;;;;;4.25;2.00;;;;;;;18.93;98.30;100412.31;4975334;28;96649;-29
2023/10/13 10:08:01;;;;;;;2.83;1.60;;;;;;;19.05;97.38;100416.53;4974524;28;96818;-28
2023/10/13 10:10:44;;;;;;;5.93;2.45;;;;;;;19.12;96.31;100410.41;4975618;28;100001;-28
2023/10/13 10:13:22;;;;;;;3.38;2.03;;;;;;;19.20;94.97;100400.31;4975728;28;97721;-28
2023/10/13 10:15:51;;;;;;;3.42;1.58;;;;;;;19.27;94.04;100398.66;4975795;28;96506;-28
2023/10/13 10:18:27;;;;;;;4.32;2.30;;;;;;;19.27;94.44;100403.28;4975648;28;96853;-28
2023/10/13 10:21:07;;;;;;;7.63;1.92;;;;;;;19.31;95.03;100402.81;4975212;28;99560;-29
2023/10/13 10:23:36;;;;;;;3.58;1.90;;;;;;;19.27;94.62;100397.78;4975822;28;98018;-28
2023/10/13 10:26:15;;;;;;;5.57;1.77;;;;;;;19.29;94.31;100396.59;4974102;28;96835;-28
2023/10/13 10:28:43;;;;;;;5.22;2.03;;;;;;;19.27;94.74;100401.38;4975743;28;96545;-27
2023/10/13 10:31:12;;;;;;;3.75;1.63;;;;;;;19.29;94.14;100404.00;4973410;28;101680;-28
2023/10/13 10:33:39;;;;;;;6.82;2.42;;;;;;;19.25;94.38;100381.47;4973742;28;99110;-29
2023/10/13 10:36:05;;;;;;;8.10;1.95;;;;;;;19.28;94.00;100380.28;4974296;28;96730;-28
2023/10/13 10:38:38;;;;;;;4.35;2.08;;;;;;;19.25;92.24;100367.72;4975502;28;96861;-28
2023/10/13 10:41:05;;;;;;;5.18;1.90;;;;;;;19.33;93.12;100382.53;4975009;28;99494;-28
2023/10/13 10:43:42;;;;;;;6.20;1.90;;;;;;;19.38;93.30;100377.41;4973411;28;98855;-28
2023/10/13 10:46:12;;;;;;;5.07;1.65;;;;;;;19.40;92.22;100372.63;4973387;28;96783;-28
2023/10/13 10:48:42;;;;;;;6.88;2.03;;;;;;;19.46;92.94;100382.97;4975655;28;96698;-28
2023/10/13 10:51:31;;;;;;;3.97;1.80;;;;;;;19.46;91.94;100358.25;4973575;28;100886;-27
2023/10/13 10:53:57;;;;;;;3.88;1.85;;;;;;;19.47;91.47;100343.47;4973503;28;100831;-28
2023/10/13 10:56:36;;;;;;;5.72;1.98;;;;;;;19.49;91.74;100360.66;4973230;28;96634;-28
2023/10/13 10:59:06;;;;;;;5.40;2.28;;;;;;;19.44;90.82;100357.53;4975210;28;96671;-28
2023/10/13 11:01:38;;;;;;;4.45;2.08;;;;;;;19.49;90.99;100355.16;4973692;28;99900;-28
2023/10/13 11:04:08;;;;;;;;;;;;;;;19.50;90.11;100334.91;4972935;28;100713;-28
2023/10/13 11:06:45;;;;;;;5.13;1.88;;;;;;;19.51;91.09;100339.38;4973721;28;96822;-29
2023/10/13 11:11:52;;;;;;;5.80;1.95;;;;;;;19.72;88.77;100347.22;4974506;28;97937;-28
2023/10/13 11:14:28;;;;;;;4.22;2.08;;;;;;;19.79;88.95;100322.69;4973666;28;100691;-28
2023/10/13 11:16:59;;;;;;;4.70;2.30;;;;;;;19.85;87.45;100317.34;4973569;28;96735;-28
2023/10/13 11:19:38;;;;;;;6.70;2.55;;;;;;;19.89;86.93;100317.91;4973692;28;96717;-29
2023/10/13 11:22:28;;;;;;;8.60;2.08;;;;;;;19.83;87.56;100319.44;4972606;28;101052;-28
2023/10/13 11:24:55;;;;;;;4.55;2.15;;;;;;;19.83;86.39;100316.69;4974493;28;99106;-28
2023/10/13 11:27:43;;;;;;;4.68;2.33;;;;;;;19.79;86.13;100326.28;4974932;28;96553;-28
2023/10/13 11:30:12;;;;;;;5.35;2.10;;;;;;;19.75;86.33;100313.06;4974808;28;96850;-27
2023/10/13 11:32:41;;;;;;;5.50;2.10;;;;;;;19.80;85.38;100335.38;4972783;28;98888;-28
2023/10/13 11:35:11;;;;;;;9.38;2.10;;;;;;;19.80;85.43;100327.16;4973186;28;101240;-28
2023/10/13 11:37:43;;;;;;;5.50;2.17;;;;;;;19.83;85.11;100310.31;4973352;28;96634;-28
2023/10/13 11:40:12;;;;;;;5.82;2.33;;;;;;;19.84;84.35;100325.78;4973805;28;96805;-28
2023/10/13 11:42:43;;;;;;;4.30;1.95;;;;;;;19.83;84.22;100315.81;4972891;28;100976;-29
2023/10/13 11:47:59;;;;;;;9.25;2.83;;;;;;;19.87;83.77;100320.81;4973243;28;96743;-28
2023/10/13 11:50:33;;;;;;;;;;;;;;;19.86;82.52;100326.50;4974971;28;96799;-28
2023/10/13 11:52:59;;;;;;;5.45;1.85;;;;;;;19.81;84.86;100327.00;4973109;28;100875;-28
2023/10/13 11:55:25;;;;;;;8.10;2.25;;;;;;;19.82;83.58;100330.59;4972820;28;101245;-28
2023/10/13 11:57:50;;;;;;;6.40;2.28;;;;;;;19.81;82.80;100334.38;4974393;28;96566;-28
2023/10/13 12:00:26;;;;;;;5.10;2.47;;;;;;;19.80;82.54;100321.66;4974424;28;96925;-28
2023/10/13 12:05:59;;;;;;;5.70;1.75;;;;;;;19.81;81.52;100299.50;4974676;28;96912;-28
2023/10/13 12:08:22;;;;;;;6.18;2.25;;;;;;;19.92;82.33;100309.31;4974343;28;96648;-27
2023/10/13 12:11:00;;;;;;;4.82;2.25;;;;;;;19.92;82.66;100326.66;4973159;28;96897;-27
2023/10/13 12:13:25;;;;;;;4.72;2.45;;;;;;;19.89;83.58;100309.66;4972287;28;101004;-27
2023/10/13 12:15:52;;;;;;;5.28;2.17;;;;;;;19.85;84.00;100308.25;4975061;28;97862;-28
2023/10/13 12:18:19;;;;;;;5.68;2.25;;;;;;;19.80;83.98;100283.16;4976138;28;96744;-28
2023/10/13 12:20:45;;;;;;;4.75;2.38;;;;;;;19.79;84.10;100304.31;4976310;28;96924;-28
2023/10/13 12:23:19;;;;;;;5.72;2.33;;;;;;;19.83;82.89;100294.72;4977132;28;99707;-29
2023/10/13 12:25:54;;;;;;;6.65;2.28;;;;;;;19.84;83.30;100290.91;4977502;28;97804;-27
2023/10/13 12:28:23;;;;;;;5.90;2.60;;;;;;;19.82;83.51;100292.97;4976257;28;96672;-28
2023/10/13 12:30:49;;;;;;;5.95;1.90;;;;;;;19.82;84.53;100294.84;4976193;28;96843;-28
2023/10/13 12:33:23;;;;;;;6.18;2.33;;;;;;;19.85;84.23;100294.50;4975628;28;101015;-28
2023/10/13 12:36:09;;;;;;;5.15;2.00;;;;;;;19.84;84.92;100287.31;4975742;28;100782;-28
2023/10/13 12:52:15;;;;;;;5.03;2.17;;;;;;;19.72;87.14;100304.09;4994856;28;96516;-28
2023/10/13 12:57:28;;;;;;;5.00;2.47;;;;;;;19.64;87.14;100282.09;4994051;28;98281;-28
2023/10/13 12:59:54;;;;;;;4.75;2.47;;;;;;;19.65;87.23;100277.44;4975252;28;96915;-33
2023/10/13 13:02:20;;;;;;;8.95;2.65;;;;;;;19.69;87.08;100279.72;4974244;28;96942;-28
2023/10/13 13:04:50;;;;;;;5.15;2.28;;;;;;;19.63;86.32;100274.00;4972630;28;98520;-28
2023/10/13 13:07:16;;;;;;;6.88;2.60;;;;;;;19.71;86.76;100285.03;4975977;28;100528;-27
2023/10/13 13:09:41;;;;;;;4.93;2.20;;;;;;;19.68;87.02;100282.63;4975649;28;96887;-29
2023/10/13 13:12:07;;;;;;;5.70;2.17;;;;;;;19.69;85.94;100290.72;4975451;28;96854;-28
2023/10/13 13:14:34;;;;;;;5.82;2.50;;;;;;;19.70;85.50;100288.81;4975747;28;97922;-28
2023/10/13 13:17:05;;;;;;;6.25;2.38;;;;;;;19.71;85.63;100274.91;4974079;28;101345;-28
2023/10/13 13:19:40;;;;;;;7.47;2.90;;;;;;;19.67;86.17;100262.50;4980494;28;96800;-28
2023/10/13 13:22:11;;;;;;;7.50;2.40;;;;;;;19.70;85.56;100277.81;4973318;28;97042;-28
2023/10/13 13:24:43;;;;;;;6.18;2.45;;;;;;;19.71;86.36;100269.44;4976041;28;99572;-27
2023/10/13 13:27:13;;;;;;;7.47;2.47;;;;;;;19.65;86.85;100271.94;4975157;28;99144;-28
2023/10/13 13:29:42;;;;;;;3.22;2.00;;;;;;;19.67;87.02;100284.47;4973410;28;96827;-28
2023/10/13 13:32:18;;;;;;;7.35;2.67;;;;;;;19.66;86.42;100280.03;4974521;28;96901;-28
2023/10/13 13:34:54;;;;;;;3.78;2.13;;;;;;;19.60;86.45;100275.19;4986282;28;101085;-31
2023/10/13 13:37:20;;;;;;;12.35;3.20;;;;;;;19.60;87.37;100290.81;4985439;28;99524;-29
2023/10/13 13:39:46;;;;;;;9.40;2.22;;;;;;;19.49;87.60;100294.72;4973696;28;98266;-27
2023/10/13 13:42:17;;;;;;;8.38;2.03;;;;;;;19.41;89.88;100290.06;4973973;28;96824;-31
2023/10/13 13:44:48;;;;;;;4.83;2.73;;;;;;;19.35;91.36;100322.81;4985956;28;101368;-28
2023/10/13 13:47:14;;;;;;;6.72;2.60;;;;;;;19.22;92.70;100307.66;4992327;28;101209;-29
2023/10/13 13:49:51;;;;;;;5.82;2.63;;;;;;;19.06;93.66;100302.94;4992208;28;96751;-28
2023/10/13 13:52:33;;;;;;;3.63;2.00;;;;;;;19.04;94.58;100313.25;4995251;28;96622;-28
2023/10/13 13:55:02;;;;;;;6.13;2.40;;;;;;;18.94;95.91;100344.56;4992971;28;101468;-30
2023/10/13 13:57:28;;;;;;;6.05;2.20;;;;;;;18.79;97.80;100334.16;4991132;28;101242;-36
2023/10/13 13:59:53;;;;;;;8.18;2.13;;;;;;;18.73;99.66;100351.22;4990599;28;97007;-30
2023/10/13 14:02:21;;;;;;;3.60;1.75;;;;;;;18.63;99.85;100343.09;4991055;28;97360;-28
2023/10/13 14:04:50;;;;;;;4.22;1.48;;;;;;;18.60;100.00;100359.00;4989065;28;101879;-36
2023/10/13 14:07:16;;;;;;;3.45;1.40;;;;;;;18.51;100.00;100351.72;4989086;28;101019;-36
2023/10/13 14:09:43;;;;;;;2.47;1.20;;;;;;;18.50;100.00;100361.84;4989634;28;97198;-36
2023/10/13 14:15:24;;;;;;;2.28;1.15;;;;;;;18.43;100.00;100345.16;4970119;28;99117;-29
2023/10/13 14:17:49;;;;;;;5.75;1.23;;;;;;;18.38;100.00;100352.16;4954246;28;101045;-28
2023/10/13 14:20:18;;;;;;;1.83;0.77;;;;;;;18.38;100.00;100350.25;4983508;28;96942;-28
2023/10/13 14:22:47;;;;;;;6.13;1.25;;;;;;;18.33;100.00;100365.44;4994068;28;97004;-28
2023/10/13 14:25:14;;;;;;;3.28;1.00;;;;;;;18.36;100.00;100365.16;4977593;28;101378;-27
2023/10/13 14:27:42;;;;;;;2.70;1.02;;;;;;;18.32;100.00;100358.25;4993459;28;98940;-28
2023/10/13 14:30:08;;;;;;;2.42;0.98;;;;;;;18.31;100.00;100342.81;4994023;28;96985;-28
2023/10/13 14:32:40;;;;;;;3.72;0.95;;;;;;;18.33;100.00;100340.75;4994140;28;96959;-28
2023/10/13 14:35:14;;;;;;;4.60;1.70;;;;;;;18.34;100.00;100358.97;4993694;28;101008;-28
2023/10/13 14:37:40;;;;;;;1.65;1.15;;;;;;;18.31;100.00;100351.06;4993932;28;100891;-28
2023/10/13 14:40:12;;;;;;;3.88;1.65;;;;;;;18.30;100.00;100374.84;4995029;28;96785;-28
2023/10/13 14:42:40;;;;;;;6.93;1.58;;;;;;;18.25;100.00;100355.25;4995453;28;96709;-28